Time;durP1;ratioP1;P1;durP2;ratioP2;P2;SDS_P1;SDS_P2;PMS_P1;PMS_P2;Temp;Humidity;BMP_temperature;BMP_pressure;BME280_temperature;BME280_humidity;BME280_pressure;Samples;Min_cycle;Max_cycle;Signal;HPM_P1;HPM_P2
2021/12/04 00:00:07;;;;;;;12.03;5.90;;;1.10;97.10;;;;;;5093972;28;20636;-64
2021/12/04 00:02:34;;;;;;;10.57;5.33;;;1.00;97.00;;;;;;5093547;28;20240;-64
2021/12/04 00:05:04;;;;;;;9.37;4.73;;;1.00;97.00;;;;;;5094631;28;20530;-64
2021/12/04 00:07:33;;;;;;;10.03;5.50;;;1.00;97.00;;;;;;5094804;28;20286;-64
2021/12/04 00:10:02;;;;;;;15.33;6.20;;;1.00;97.20;;;;;;5094927;28;20258;-64
2021/12/04 00:12:30;;;;;;;13.93;6.40;;;1.00;97.30;;;;;;5093923;28;20247;-64
2021/12/04 00:14:57;;;;;;;11.80;5.33;;;1.00;97.40;;;;;;5091763;28;20213;-64
2021/12/04 00:17:25;;;;;;;10.57;6.40;;;1.00;97.50;;;;;;5093945;28;20272;-64
2021/12/04 00:19:52;;;;;;;12.37;5.67;;;1.00;97.60;;;;;;5094574;28;20287;-63
2021/12/04 00:22:20;;;;;;;10.90;5.17;;;0.90;97.60;;;;;;5094526;28;20728;-64
2021/12/04 00:24:47;;;;;;;8.83;5.70;;;0.90;97.70;;;;;;5094038;28;20299;-64
2021/12/04 00:27:13;;;;;;;9.13;5.17;;;0.80;97.70;;;;;;5089782;28;20264;-64
2021/12/04 00:29:41;;;;;;;10.00;5.13;;;0.80;97.80;;;;;;5094766;28;20623;-63
2021/12/04 00:32:12;;;;;;;11.57;6.13;;;0.80;98.00;;;;;;5093374;28;20219;-63
2021/12/04 00:34:43;;;;;;;10.33;5.10;;;0.80;98.10;;;;;;5093004;28;20207;-62
2021/12/04 00:50:49;;;;;;;9.07;5.33;;;0.80;98.50;;;;;;5094677;28;20203;-62
2021/12/04 00:53:16;;;;;;;9.40;5.93;;;0.80;98.60;;;;;;5093654;28;20239;-64
2021/12/04 00:55:43;;;;;;;11.53;6.00;;;0.80;98.60;;;;;;5093577;28;20645;-62
2021/12/04 00:58:10;;;;;;;8.23;5.50;;;0.80;98.50;;;;;;5093444;28;20220;-62
2021/12/04 01:00:37;;;;;;;9.53;5.60;;;0.90;98.50;;;;;;5093399;28;20804;-62
2021/12/04 01:03:04;;;;;;;11.73;5.33;;;0.90;98.50;;;;;;5093315;28;20243;-62
2021/12/04 01:05:31;;;;;;;10.73;6.20;;;0.90;98.50;;;;;;5093101;28;20236;-62
2021/12/04 01:07:59;;;;;;;11.40;5.70;;;0.90;98.40;;;;;;5093465;28;20327;-63
2021/12/04 01:10:26;;;;;;;10.33;5.73;;;0.90;98.30;;;;;;5093208;28;20210;-62
2021/12/04 01:12:56;;;;;;;11.93;5.77;;;0.90;98.20;;;;;;5094223;28;20240;-64
2021/12/04 01:15:23;;;;;;;9.47;6.30;;;0.90;98.20;;;;;;5093562;28;20204;-62
2021/12/04 01:17:50;;;;;;;9.67;6.10;;;0.90;98.30;;;;;;5091983;28;20204;-64
2021/12/04 01:20:17;;;;;;;12.77;7.13;;;0.80;98.20;;;;;;5092790;28;20291;-64
2021/12/04 01:22:44;;;;;;;9.13;5.73;;;0.80;98.10;;;;;;5092937;28;20295;-62
2021/12/04 01:25:12;;;;;;;11.50;6.47;;;0.80;98.20;;;;;;5093153;28;20285;-62
2021/12/04 01:27:39;;;;;;;12.07;6.80;;;0.80;98.20;;;;;;5092078;28;20224;-63
2021/12/04 01:30:08;;;;;;;14.57;6.70;;;0.70;98.20;;;;;;5093688;28;20299;-63
2021/12/04 01:32:35;;;;;;;10.70;5.77;;;0.70;98.20;;;;;;5093799;28;20665;-63
2021/12/04 01:35:02;;;;;;;9.80;5.97;;;0.70;98.20;;;;;;5093674;28;20219;-62
2021/12/04 01:37:29;;;;;;;11.23;5.97;;;0.70;98.20;;;;;;5093940;28;20283;-63
2021/12/04 01:39:56;;;;;;;11.83;6.37;;;0.70;98.20;;;;;;5093113;28;20649;-63
2021/12/04 01:42:24;;;;;;;12.27;6.70;;;0.70;98.20;;;;;;5093601;28;20201;-62
2021/12/04 01:44:51;;;;;;;12.83;6.40;;;0.70;98.30;;;;;;5094514;28;20268;-62
2021/12/04 01:47:20;;;;;;;11.97;6.43;;;0.70;98.40;;;;;;5095231;28;20284;-63
2021/12/04 01:49:49;;;;;;;10.57;5.97;;;0.70;98.30;;;;;;5098022;28;20218;-62
2021/12/04 01:52:17;;;;;;;13.07;6.17;;;0.70;98.30;;;;;;5097395;28;20562;-61
2021/12/04 01:54:45;;;;;;;10.47;5.83;;;0.70;98.40;;;;;;5097854;28;20215;-62
2021/12/04 01:57:14;;;;;;;11.67;7.20;;;0.70;98.40;;;;;;5099022;28;20235;-62
2021/12/04 01:59:44;;;;;;;11.57;6.50;;;0.70;98.30;;;;;;5097847;28;20212;-63
2021/12/04 02:02:11;;;;;;;16.83;7.43;;;0.70;98.30;;;;;;5096884;28;20287;-63
2021/12/04 02:04:38;;;;;;;12.63;6.87;;;0.60;98.30;;;;;;5096863;28;20240;-63
2021/12/04 02:07:05;;;;;;;14.53;7.47;;;0.70;98.30;;;;;;5097681;28;20642;-65
2021/12/04 02:09:33;;;;;;;15.00;6.80;;;0.60;98.20;;;;;;5098009;28;20204;-63
2021/12/04 02:12:03;;;;;;;15.67;7.40;;;0.60;98.20;;;;;;5097646;28;20813;-64
2021/12/04 02:14:30;;;;;;;12.60;7.13;;;0.60;98.20;;;;;;5096586;28;20204;-64
2021/12/04 02:16:59;;;;;;;14.93;6.73;;;0.50;98.30;;;;;;5096774;28;20299;-63
2021/12/04 02:19:25;;;;;;;15.50;6.77;;;0.50;98.30;;;;;;5096957;28;20291;-63
2021/12/04 02:21:54;;;;;;;14.53;7.33;;;0.50;98.40;;;;;;5096753;28;20287;-63
2021/12/04 02:24:21;;;;;;;15.00;7.50;;;0.50;98.50;;;;;;5097086;28;20239;-63
2021/12/04 02:26:49;;;;;;;14.27;7.60;;;0.50;98.60;;;;;;5095828;28;20237;-63
2021/12/04 02:29:15;;;;;;;13.23;7.03;;;0.60;98.60;;;;;;5096490;28;20280;-64
2021/12/04 02:31:47;;;;;;;16.87;7.23;;;0.50;98.70;;;;;;5095988;28;20295;-64
2021/12/04 02:34:20;;;;;;;16.00;7.60;;;0.40;98.70;;;;;;5095517;28;20697;-63
2021/12/04 02:36:47;;;;;;;16.17;8.20;;;0.50;98.80;;;;;;5095953;28;20295;-62
2021/12/04 02:39:23;;;;;;;17.60;7.73;;;0.50;98.80;;;;;;5095807;28;20227;-63
2021/12/04 02:41:50;;;;;;;18.07;7.83;;;0.50;98.80;;;;;;5095790;28;20199;-63
2021/12/04 02:44:17;;;;;;;17.33;7.93;;;0.50;98.80;;;;;;5095495;28;20288;-63
2021/12/04 02:46:44;;;;;;;15.30;8.03;;;0.40;98.80;;;;;;5095440;28;20240;-64
2021/12/04 02:49:14;;;;;;;17.00;8.40;;;0.40;98.80;;;;;;5094809;28;20255;-63
2021/12/04 02:51:41;;;;;;;15.63;8.17;;;0.40;98.80;;;;;;5095451;28;20300;-62
2021/12/04 02:54:10;;;;;;;17.80;9.57;;;0.40;98.90;;;;;;5095955;28;20291;-63
2021/12/04 02:56:42;;;;;;;15.00;8.57;;;0.50;99.10;;;;;;5096012;28;20692;-63
2021/12/04 02:59:09;;;;;;;17.27;8.20;;;0.40;99.10;;;;;;5094231;28;20270;-63
2021/12/04 03:01:37;;;;;;;18.90;9.37;;;0.40;99.20;;;;;;5095403;28;20246;-63
2021/12/04 03:04:09;;;;;;;15.83;7.97;;;0.30;99.20;;;;;;5094568;28;20201;-64
2021/12/04 03:06:41;;;;;;;19.23;9.33;;;0.30;99.40;;;;;;5095249;28;20318;-63
2021/12/04 03:09:08;;;;;;;17.57;9.23;;;0.20;99.40;;;;;;5094668;28;20228;-64
2021/12/04 03:11:36;;;;;;;17.70;8.87;;;0.20;99.60;;;;;;5095255;28;20280;-63
2021/12/04 03:14:05;;;;;;;19.90;9.73;;;0.20;99.80;;;;;;5095374;28;20621;-62
2021/12/04 03:16:33;;;;;;;17.37;8.77;;;0.20;99.90;;;;;;5094634;28;20258;-62
2021/12/04 03:19:00;;;;;;;19.93;9.33;;;0.20;99.90;;;;;;5093730;28;20637;-59
2021/12/04 03:21:27;;;;;;;17.73;9.37;;;0.10;99.90;;;;;;5093696;28;20276;-61
2021/12/04 03:23:57;;;;;;;21.40;9.83;;;0.10;99.90;;;;;;5094120;28;20352;-60
2021/12/04 03:26:24;;;;;;;16.80;9.10;;;0.10;99.90;;;;;;5093010;28;20247;-61
2021/12/04 03:28:53;;;;;;;16.83;9.13;;;0.20;99.90;;;;;;5093437;28;20254;-62
2021/12/04 03:31:30;;;;;;;19.80;10.27;;;0.20;99.90;;;;;;5085985;28;20208;-63
2021/12/04 03:42:11;;;;;;;17.70;10.30;;;0.20;99.90;;;;;;5093912;28;20710;-63
2021/12/04 03:44:39;;;;;;;20.27;10.50;;;0.10;99.90;;;;;;5093027;28;20228;-62
2021/12/04 03:47:09;;;;;;;21.73;11.13;;;0.10;99.90;;;;;;5093702;28;20216;-63
2021/12/04 03:49:37;;;;;;;22.03;10.27;;;0.10;99.90;;;;;;5093933;28;20220;-64
2021/12/04 03:52:05;;;;;;;21.40;11.17;;;0.10;99.90;;;;;;5094138;28;20637;-64
2021/12/04 03:54:32;;;;;;;22.23;10.50;;;0.10;99.90;;;;;;5093792;28;20204;-63
2021/12/04 03:57:03;;;;;;;22.37;11.33;;;0.10;99.90;;;;;;5092929;28;20653;-63
2021/12/04 03:59:30;;;;;;;22.27;11.10;;;0.10;99.90;;;;;;5093264;28;20204;-63
2021/12/04 04:01:57;;;;;;;23.83;11.30;;;0.10;99.90;;;;;;5093964;28;20258;-62
2021/12/04 04:04:25;;;;;;;20.37;11.30;;;0.10;99.90;;;;;;5093703;28;20624;-63
2021/12/04 04:06:52;;;;;;;19.90;10.47;;;0.00;99.90;;;;;;5093974;28;20232;-63
2021/12/04 04:09:19;;;;;;;21.27;11.23;;;0.10;99.90;;;;;;5092625;28;20315;-62
2021/12/04 04:11:47;;;;;;;23.63;11.13;;;0.00;99.90;;;;;;5093654;28;20318;-62
2021/12/04 04:14:15;;;;;;;21.83;11.87;;;0.00;99.90;;;;;;5094105;28;20715;-62
2021/12/04 04:16:42;;;;;;;21.27;11.27;;;0.00;99.90;;;;;;5093904;28;20251;-62
2021/12/04 04:19:09;;;;;;;19.23;10.50;;;0.00;99.90;;;;;;5092951;28;20627;-61
2021/12/04 04:21:41;;;;;;;20.03;10.27;;;0.00;99.90;;;;;;5093103;28;20658;-62
2021/12/04 04:24:09;;;;;;;19.23;10.60;;;0.00;99.90;;;;;;5094121;28;20215;-62
2021/12/04 04:26:36;;;;;;;22.43;10.87;;;-0.10;99.90;;;;;;5093163;28;20316;-61
2021/12/04 04:29:04;;;;;;;21.03;10.73;;;-0.10;99.90;;;;;;5094208;28;20244;-61
2021/12/04 04:31:31;;;;;;;20.60;10.83;;;-0.10;99.90;;;;;;5093218;28;20255;-63
2021/12/04 04:34:02;;;;;;;19.60;10.47;;;-0.10;99.90;;;;;;5094107;28;20240;-63
2021/12/04 04:36:42;;;;;;;16.13;9.60;;;-0.10;99.90;;;;;;5093029;28;20611;-63
2021/12/04 04:39:23;;;;;;;20.80;11.07;;;-0.10;99.90;;;;;;5080093;28;20211;-64
2021/12/04 04:58:27;;;;;;;20.03;10.93;;;0.00;99.90;;;;;;5092594;28;20394;-63
2021/12/04 05:01:18;;;;;;;20.50;10.40;;;0.00;99.90;;;;;;5092849;28;20279;-63
2021/12/04 05:12:10;;;;;;;20.10;9.37;;;0.10;99.90;;;;;;5078829;28;20196;-63
2021/12/04 05:14:41;;;;;;;20.03;10.07;;;0.10;99.90;;;;;;5091803;28;20637;-64
2021/12/04 05:17:11;;;;;;;21.50;11.13;;;0.10;99.90;;;;;;5092573;28;20243;-63
2021/12/04 05:19:42;;;;;;;20.47;9.83;;;0.20;99.90;;;;;;5082398;28;20266;-63
2021/12/04 05:22:12;;;;;;;17.97;9.17;;;0.10;99.90;;;;;;5078937;28;20227;-63
2021/12/04 05:24:39;;;;;;;16.47;9.57;;;0.10;99.90;;;;;;5092886;28;20216;-64
2021/12/04 05:27:08;;;;;;;20.80;9.93;;;0.20;99.90;;;;;;5091623;28;20322;-62
2021/12/04 05:29:36;;;;;;;17.57;9.63;;;0.10;99.90;;;;;;5092075;28;20312;-61
2021/12/04 05:32:03;;;;;;;19.40;9.97;;;0.20;99.90;;;;;;5092005;28;20287;-62
2021/12/04 05:34:30;;;;;;;19.07;9.60;;;0.20;99.90;;;;;;5091379;28;20269;-63
2021/12/04 05:36:58;;;;;;;15.70;9.23;;;0.20;99.90;;;;;;5091943;28;20241;-62
2021/12/04 05:39:25;;;;;;;18.30;9.80;;;0.20;99.90;;;;;;5092036;28;20843;-63
2021/12/04 05:41:52;;;;;;;18.47;9.10;;;0.20;99.90;;;;;;5091424;28;20247;-63
2021/12/04 05:44:24;;;;;;;16.90;9.03;;;0.20;99.90;;;;;;5091775;28;20196;-63
2021/12/04 05:46:59;;;;;;;17.33;8.47;;;0.20;99.90;;;;;;5092231;28;20346;-64
2021/12/04 05:49:29;;;;;;;16.33;8.83;;;0.20;99.90;;;;;;5089144;28;20632;-62
2021/12/04 05:52:13;;;;;;;17.47;9.27;;;0.20;99.90;;;;;;5092179;28;20200;-62
2021/12/04 05:55:07;;;;;;;14.93;8.53;;;0.20;99.90;;;;;;5092077;28;20628;-63
2021/12/04 05:57:34;;;;;;;14.37;8.00;;;0.20;99.90;;;;;;5092068;28;20746;-63
2021/12/04 06:00:03;;;;;;;16.40;8.17;;;0.20;99.90;;;;;;5090486;28;20217;-64
2021/12/04 06:02:30;;;;;;;16.40;8.30;;;0.20;99.90;;;;;;5085386;28;20205;-63
2021/12/04 06:04:57;;;;;;;17.07;7.97;;;0.30;99.90;;;;;;5092586;28;20292;-63
2021/12/04 06:07:24;;;;;;;16.23;8.00;;;0.20;99.90;;;;;;5093210;28;20209;-63
2021/12/04 06:09:51;;;;;;;17.23;7.83;;;0.30;99.90;;;;;;5091899;28;20343;-64
2021/12/04 06:12:18;;;;;;;13.87;7.90;;;0.30;99.90;;;;;;5093725;28;20240;-62
2021/12/04 06:14:47;;;;;;;14.37;7.67;;;0.30;99.90;;;;;;5092972;28;20293;-62
2021/12/04 06:17:18;;;;;;;15.20;7.27;;;0.30;99.90;;;;;;5092023;28;20204;-63
2021/12/04 06:22:40;;;;;;;11.53;6.67;;;0.30;99.90;;;;;;5091501;28;20219;-64
2021/12/04 06:25:09;;;;;;;13.43;7.10;;;0.30;99.90;;;;;;5091247;28;20204;-63
2021/12/04 06:27:36;;;;;;;11.97;6.87;;;0.40;99.90;;;;;;5091464;28;20315;-62
2021/12/04 06:30:04;;;;;;;14.97;8.17;;;0.40;99.90;;;;;;5092392;28;20753;-64
2021/12/04 06:32:34;;;;;;;12.83;7.33;;;0.50;99.90;;;;;;5091318;28;20236;-63
2021/12/04 06:35:01;;;;;;;18.53;7.93;;;0.50;99.90;;;;;;5096121;28;20221;-63
2021/12/04 06:37:29;;;;;;;11.90;6.80;;;0.50;99.90;;;;;;5095134;28;20205;-63
2021/12/04 06:39:56;;;;;;;10.07;6.10;;;0.60;99.90;;;;;;5096107;28;20240;-62
2021/12/04 06:42:23;;;;;;;10.43;6.30;;;0.60;99.90;;;;;;5096158;28;21002;-63
2021/12/04 06:44:53;;;;;;;15.93;7.30;;;0.70;99.90;;;;;;5094819;28;20184;-63
2021/12/04 06:47:20;;;;;;;12.13;6.13;;;0.70;99.90;;;;;;5095486;28;20273;-63
2021/12/04 06:49:50;;;;;;;13.37;6.70;;;0.80;99.90;;;;;;5093958;28;20217;-62
2021/12/04 06:52:20;;;;;;;9.97;6.37;;;0.80;99.90;;;;;;5094766;28;20274;-63
2021/12/04 06:54:54;;;;;;;11.93;6.27;;;0.80;99.90;;;;;;5094632;28;20491;-63
2021/12/04 06:57:22;;;;;;;14.27;6.80;;;0.90;99.90;;;;;;5095249;28;20316;-63
2021/12/04 06:59:52;;;;;;;10.87;6.60;;;0.90;99.90;;;;;;5095293;28;20701;-63
2021/12/04 07:02:19;;;;;;;11.40;6.43;;;0.90;99.90;;;;;;5095569;28;20204;-64
2021/12/04 07:04:48;;;;;;;11.23;6.50;;;1.00;99.90;;;;;;5096186;28;20332;-65
2021/12/04 07:07:15;;;;;;;11.47;6.20;;;1.00;99.90;;;;;;5096424;28;20257;-65
2021/12/04 07:09:44;;;;;;;9.63;6.07;;;1.10;99.90;;;;;;5095411;28;20717;-65
2021/12/04 07:12:12;;;;;;;12.47;6.63;;;1.10;99.90;;;;;;5094745;28;20262;-65
2021/12/04 07:14:39;;;;;;;9.77;5.87;;;1.20;99.90;;;;;;5094202;28;20273;-66
2021/12/04 07:17:08;;;;;;;9.47;6.10;;;1.20;99.90;;;;;;5094333;28;20284;-66
2021/12/04 07:19:35;;;;;;;12.33;6.97;;;1.20;99.90;;;;;;5095840;28;20639;-66
2021/12/04 07:22:04;;;;;;;9.57;5.93;;;1.30;99.90;;;;;;5095136;28;20697;-66
2021/12/04 07:24:32;;;;;;;11.37;5.87;;;1.30;99.90;;;;;;5092219;28;20236;-67
2021/12/04 07:26:59;;;;;;;11.07;6.27;;;1.30;99.90;;;;;;5094217;28;20236;-66
2021/12/04 07:29:26;;;;;;;10.37;6.07;;;1.30;99.90;;;;;;5095121;28;20740;-65
2021/12/04 07:31:53;;;;;;;11.30;6.37;;;1.30;99.90;;;;;;5093756;28;20212;-66
2021/12/04 07:34:21;;;;;;;9.90;6.47;;;1.30;99.90;;;;;;5089406;28;20308;-65
2021/12/04 07:36:47;;;;;;;14.20;6.17;;;1.30;99.90;;;;;;5090717;28;20236;-66
2021/12/04 07:39:16;;;;;;;7.70;5.43;;;1.30;99.90;;;;;;5100699;28;20291;-65
2021/12/04 07:41:43;;;;;;;11.57;5.77;;;1.40;99.90;;;;;;5105174;28;20295;-66
2021/12/04 07:44:10;;;;;;;9.90;5.83;;;1.50;99.90;;;;;;5105155;28;20208;-65
2021/12/04 07:46:38;;;;;;;12.47;6.17;;;1.50;99.90;;;;;;5104614;28;20317;-65
2021/12/04 07:49:05;;;;;;;9.33;5.77;;;1.60;99.90;;;;;;5092674;28;20255;-65
2021/12/04 07:51:33;;;;;;;10.37;5.90;;;1.60;99.90;;;;;;5096925;28;20247;-66
2021/12/04 07:54:00;;;;;;;9.37;6.13;;;1.70;99.90;;;;;;5097813;28;20328;-65
2021/12/04 07:56:30;;;;;;;11.63;6.27;;;1.80;99.90;;;;;;5096635;28;20652;-65
2021/12/04 07:58:57;;;;;;;8.57;5.50;;;1.80;99.90;;;;;;5095928;28;20618;-66
2021/12/04 08:01:24;;;;;;;16.60;6.13;;;1.80;99.90;;;;;;5094468;28;20204;-65
2021/12/04 08:03:51;;;;;;;8.97;5.47;;;1.80;99.90;;;;;;5093852;28;20716;-66
2021/12/04 08:06:18;;;;;;;8.83;5.57;;;1.90;99.90;;;;;;5093519;28;20253;-66
2021/12/04 08:08:45;;;;;;;9.50;5.90;;;1.90;99.90;;;;;;5093130;28;20240;-64
2021/12/04 08:11:13;;;;;;;10.83;5.97;;;2.00;99.90;;;;;;5092583;28;20208;-65
2021/12/04 08:13:43;;;;;;;11.97;6.33;;;2.10;99.90;;;;;;5088321;28;20318;-65
2021/12/04 08:16:10;;;;;;;11.33;5.13;;;2.10;99.90;;;;;;5090040;28;20204;-64
2021/12/04 08:18:37;;;;;;;9.67;5.93;;;2.10;99.90;;;;;;5091278;28;20308;-64
2021/12/04 08:21:04;;;;;;;12.63;6.70;;;2.10;99.80;;;;;;5094657;28;20240;-64
2021/12/04 08:23:31;;;;;;;10.27;5.63;;;2.20;99.90;;;;;;5097234;28;20201;-65
2021/12/04 08:25:58;;;;;;;6.97;4.80;;;2.20;99.90;;;;;;5090194;28;20320;-64
2021/12/04 08:28:25;;;;;;;7.90;4.73;;;2.30;99.90;;;;;;5081382;28;20201;-65
2021/12/04 08:30:53;;;;;;;8.80;5.80;;;2.30;99.90;;;;;;5093010;28;20228;-66
2021/12/04 08:33:20;;;;;;;11.53;5.13;;;2.40;99.80;;;;;;5094232;28;20235;-63
2021/12/04 08:35:47;;;;;;;11.13;6.03;;;2.40;99.70;;;;;;5094059;28;20821;-67
2021/12/04 08:38:16;;;;;;;11.90;5.67;;;2.40;99.60;;;;;;5094370;28;20298;-65
2021/12/04 08:40:44;;;;;;;8.30;5.33;;;2.50;99.60;;;;;;5094382;28;20213;-63
2021/12/04 08:43:12;;;;;;;10.53;5.50;;;2.50;99.60;;;;;;5093733;28;20213;-63
2021/12/04 08:45:41;;;;;;;10.80;5.53;;;2.60;99.40;;;;;;5092733;28;20729;-63
2021/12/04 08:48:10;;;;;;;8.37;5.33;;;2.60;99.20;;;;;;5091671;28;20295;-63
2021/12/04 08:50:39;;;;;;;9.27;5.67;;;2.70;99.00;;;;;;5091306;28;20322;-63
2021/12/04 08:53:07;;;;;;;8.80;5.13;;;2.70;98.90;;;;;;5092071;28;20215;-65
2021/12/04 08:55:36;;;;;;;10.63;5.83;;;2.70;98.80;;;;;;5091336;28;20208;-65
2021/12/04 08:58:04;;;;;;;7.17;5.03;;;2.70;98.60;;;;;;5091637;28;20224;-63
2021/12/04 09:00:36;;;;;;;7.97;5.37;;;2.70;98.50;;;;;;5091608;28;20235;-65
2021/12/04 09:03:05;;;;;;;12.67;6.07;;;2.70;98.50;;;;;;5093321;28;20211;-65
2021/12/04 09:05:35;;;;;;;8.60;5.87;;;2.80;98.30;;;;;;5103147;28;20214;-65
2021/12/04 09:08:03;;;;;;;9.37;5.83;;;2.80;98.30;;;;;;5093671;28;20216;-66
2021/12/04 09:10:30;;;;;;;13.00;6.50;;;2.80;98.10;;;;;;5092099;28;20328;-65
2021/12/04 09:12:58;;;;;;;13.00;6.10;;;2.90;97.90;;;;;;5092545;28;20247;-66
2021/12/04 09:15:27;;;;;;;10.23;5.73;;;2.90;97.90;;;;;;5091111;28;20204;-66
2021/12/04 09:17:54;;;;;;;11.43;6.53;;;2.90;97.90;;;;;;5092775;28;20204;-67
2021/12/04 09:20:21;;;;;;;11.83;6.93;;;2.90;97.70;;;;;;5091331;28;20283;-66
2021/12/04 09:22:50;;;;;;;9.93;6.23;;;2.90;97.70;;;;;;5090803;28;20543;-66
2021/12/04 09:25:22;;;;;;;11.00;6.37;;;2.90;97.70;;;;;;5091094;28;20279;-66
2021/12/04 09:28:02;;;;;;;10.23;5.63;;;2.90;97.50;;;;;;5090420;28;20212;-66
2021/12/04 09:30:49;;;;;;;12.57;5.90;;;3.00;97.60;;;;;;5090669;28;20639;-66
2021/12/04 09:36:47;;;;;;;11.50;6.27;;;3.00;97.40;;;;;;5047236;28;20221;-66
2021/12/04 10:01:23;;;;;;;10.70;6.80;;;3.10;97.20;;;;;;5090612;28;20223;-63
2021/12/04 10:12:43;;;;;;;9.07;5.33;;;3.20;97.70;;;;;;5076551;28;20213;-64
2021/12/04 10:18:23;;;;;;;11.20;5.47;;;3.30;97.30;;;;;;5083843;28;20235;-66
2021/12/04 10:24:11;;;;;;;8.73;5.20;;;3.30;97.30;;;;;;5071791;28;20276;-65
2021/12/04 10:32:37;;;;;;;10.87;5.90;;;3.50;96.90;;;;;;5054306;28;20205;-65
2021/12/04 10:35:10;;;;;;;11.80;5.40;;;3.50;96.60;;;;;;5083825;28;20208;-65
2021/12/04 10:37:47;;;;;;;12.97;5.87;;;3.60;96.50;;;;;;5092685;28;20201;-65
2021/12/04 10:40:15;;;;;;;11.83;5.80;;;3.70;96.50;;;;;;5093660;28;20212;-64
2021/12/04 10:42:45;;;;;;;12.77;6.00;;;3.80;96.60;;;;;;5094795;28;20224;-64
2021/12/04 10:45:14;;;;;;;6.97;5.33;;;3.90;96.40;;;;;;5093708;28;20212;-64
2021/12/04 10:47:54;;;;;;;12.07;6.20;;;3.90;96.30;;;;;;5105145;28;20211;-64
2021/12/04 10:50:28;;;;;;;12.57;5.83;;;4.00;95.90;;;;;;5094696;28;20715;-64
2021/12/04 10:52:58;;;;;;;10.87;6.33;;;4.10;95.50;;;;;;5095640;28;20203;-65
2021/12/04 10:55:30;;;;;;;11.03;5.77;;;4.10;95.30;;;;;;5094663;28;20579;-64
2021/12/04 11:01:02;;;;;;;11.87;6.20;;;4.10;95.10;;;;;;5087519;28;20668;-63
2021/12/04 11:03:43;;;;;;;11.13;6.30;;;4.10;95.20;;;;;;5094460;28;20207;-64
2021/12/04 11:20:50;;;;;;;14.57;7.00;;;4.10;94.40;;;;;;5091432;28;20196;-64
2021/12/04 11:37:14;;;;;;;15.37;6.63;;;4.50;94.20;;;;;;5084605;28;20199;-64
2021/12/04 11:39:57;;;;;;;10.63;6.03;;;4.40;93.80;;;;;;5082855;28;20201;-65
2021/12/04 11:42:34;;;;;;;10.53;6.87;;;4.40;93.80;;;;;;5093484;28;20196;-63
2021/12/04 11:45:12;;;;;;;10.87;6.47;;;4.40;93.80;;;;;;5102792;28;20294;-64
2021/12/04 11:47:42;;;;;;;12.03;6.93;;;4.50;93.60;;;;;;5085163;28;20243;-63
2021/12/04 11:50:22;;;;;;;9.97;6.47;;;4.50;93.60;;;;;;5096340;28;20255;-64
2021/12/04 11:52:52;;;;;;;10.23;6.70;;;4.50;93.50;;;;;;5086385;28;20211;-64
2021/12/04 11:55:20;;;;;;;13.10;6.37;;;4.50;93.20;;;;;;5098907;28;20227;-64
2021/12/04 11:57:49;;;;;;;11.67;6.87;;;4.60;93.30;;;;;;5105742;28;20224;-63
2021/12/04 12:00:24;;;;;;;12.73;6.33;;;4.50;93.30;;;;;;5102723;28;20203;-63
2021/12/04 12:03:05;;;;;;;15.63;6.90;;;4.40;93.10;;;;;;5085930;28;20197;-64
2021/12/04 12:05:32;;;;;;;17.50;6.20;;;4.40;93.00;;;;;;5091840;28;20266;-65
2021/12/04 12:07:59;;;;;;;12.30;6.87;;;4.40;93.20;;;;;;5080995;28;20240;-64
2021/12/04 12:10:27;;;;;;;11.33;6.70;;;4.30;93.00;;;;;;5086594;28;20307;-64
2021/12/04 12:13:04;;;;;;;12.73;6.40;;;4.30;93.10;;;;;;5088433;28;20637;-64
2021/12/04 12:15:34;;;;;;;11.87;6.40;;;4.30;93.60;;;;;;5092762;28;20207;-65
2021/12/04 12:18:12;;;;;;;10.60;6.73;;;4.20;93.20;;;;;;5078865;28;20217;-65
2021/12/04 12:20:43;;;;;;;10.40;6.53;;;4.20;93.10;;;;;;5098392;28;20227;-66
2021/12/04 12:23:14;;;;;;;9.23;6.40;;;4.10;93.30;;;;;;5082163;28;20640;-65
2021/12/04 12:26:03;;;;;;;10.77;6.63;;;4.20;93.40;;;;;;5082010;28;20237;-64
2021/12/04 12:31:52;;;;;;;12.17;6.77;;;4.10;93.60;;;;;;5094453;28;20228;-65
2021/12/04 12:37:19;;;;;;;11.23;6.93;;;4.20;93.60;;;;;;5094728;28;20711;-65
2021/12/04 12:39:57;;;;;;;12.03;7.10;;;4.20;93.60;;;;;;5095237;28;20243;-65
2021/12/04 12:42:26;;;;;;;10.30;6.90;;;4.20;93.40;;;;;;5074261;28;20291;-64
2021/12/04 12:44:54;;;;;;;13.67;7.60;;;4.20;93.40;;;;;;5070446;28;20206;-64
2021/12/04 12:47:21;;;;;;;14.20;7.37;;;4.20;93.60;;;;;;5076734;28;20615;-64
2021/12/04 12:49:50;;;;;;;10.93;6.83;;;4.20;93.60;;;;;;5066995;28;20679;-64
2021/12/04 12:52:22;;;;;;;14.60;7.40;;;4.10;93.40;;;;;;5081234;28;20232;-63
2021/12/04 12:54:55;;;;;;;13.10;7.40;;;4.10;93.40;;;;;;5077907;28;20229;-65
2021/12/04 12:57:26;;;;;;;11.40;7.13;;;4.10;93.70;;;;;;5073546;28;20257;-66
2021/12/04 13:11:42;;;;;;;12.47;6.77;;;4.10;93.20;;;;;;5065461;28;20244;-65
2021/12/04 13:14:11;;;;;;;13.60;7.60;;;4.00;93.20;;;;;;5066649;28;20216;-63
2021/12/04 13:16:38;;;;;;;11.20;7.10;;;3.90;93.10;;;;;;5065285;28;20248;-64
2021/12/04 13:19:09;;;;;;;13.30;7.23;;;3.80;93.20;;;;;;5077682;28;20241;-66
2021/12/04 13:21:41;;;;;;;14.37;7.47;;;3.80;93.30;;;;;;5077935;28;20205;-63
2021/12/04 13:24:11;;;;;;;12.53;7.47;;;3.70;93.40;;;;;;5073322;28;20201;-63
2021/12/04 13:26:40;;;;;;;13.23;7.80;;;3.60;93.50;;;;;;5080650;28;20209;-64
2021/12/04 13:29:09;;;;;;;17.53;8.20;;;3.60;93.50;;;;;;5088618;28;20626;-65
2021/12/04 13:31:38;;;;;;;12.97;7.90;;;3.60;93.60;;;;;;5071534;28;20317;-65
2021/12/04 13:34:09;;;;;;;15.80;9.00;;;3.50;93.70;;;;;;5083814;28;20216;-65
2021/12/04 13:36:38;;;;;;;14.77;8.00;;;3.50;93.80;;;;;;5063145;28;20288;-65
2021/12/04 13:39:08;;;;;;;15.00;8.07;;;3.50;94.00;;;;;;5072163;28;20240;-66
2021/12/04 13:41:38;;;;;;;15.87;8.63;;;3.40;93.90;;;;;;5071543;28;20293;-65
2021/12/04 13:44:08;;;;;;;16.77;8.97;;;3.40;94.20;;;;;;5068379;28;20206;-66
2021/12/04 13:46:39;;;;;;;13.80;8.50;;;3.40;94.50;;;;;;5061387;28;20236;-64
2021/12/04 13:49:06;;;;;;;12.57;7.53;;;3.30;94.80;;;;;;5072192;28;20495;-67
2021/12/04 13:51:34;;;;;;;13.27;8.00;;;3.30;95.20;;;;;;5084202;28;20310;-66
2021/12/04 13:54:03;;;;;;;17.00;7.53;;;3.40;95.50;;;;;;5064232;28;20301;-66
2021/12/04 13:56:32;;;;;;;14.77;7.67;;;3.30;96.00;;;;;;5068242;28;20261;-66
2021/12/04 13:59:02;;;;;;;14.50;8.27;;;3.30;96.40;;;;;;5063150;28;20297;-66
2021/12/04 14:01:32;;;;;;;15.07;7.87;;;3.30;96.90;;;;;;5072037;28;20250;-66
2021/12/04 14:04:02;;;;;;;11.80;6.83;;;3.30;97.30;;;;;;5072571;28;20291;-65
2021/12/04 14:06:30;;;;;;;16.17;8.50;;;3.30;97.90;;;;;;5066270;28;20206;-64
2021/12/04 14:08:59;;;;;;;14.03;7.57;;;3.30;98.60;;;;;;5070713;28;20657;-64
2021/12/04 14:11:33;;;;;;;11.90;7.87;;;3.20;98.90;;;;;;5071122;28;20316;-64
2021/12/04 14:14:09;;;;;;;14.17;8.17;;;3.10;99.50;;;;;;5064584;28;20264;-64
2021/12/04 14:16:36;;;;;;;13.53;8.33;;;3.00;99.90;;;;;;5071176;28;20236;-65
2021/12/04 14:19:12;;;;;;;14.77;8.40;;;3.00;99.90;;;;;;5056470;28;20213;-63
2021/12/04 14:21:39;;;;;;;11.87;7.53;;;2.80;99.90;;;;;;5061878;28;20221;-66
2021/12/04 14:24:06;;;;;;;19.93;8.80;;;2.70;99.90;;;;;;5059266;28;20206;-65
2021/12/04 14:26:35;;;;;;;11.30;7.30;;;2.80;99.90;;;;;;5056752;28;20241;-67
2021/12/04 14:29:02;;;;;;;15.27;8.30;;;2.70;99.90;;;;;;5072687;28;20552;-65
2021/12/04 14:31:31;;;;;;;13.57;8.20;;;2.60;99.90;;;;;;5068695;28;20287;-64
2021/12/04 14:33:58;;;;;;;13.80;8.47;;;2.60;99.90;;;;;;5071053;28;20209;-63
2021/12/04 14:36:26;;;;;;;18.37;8.03;;;2.60;99.90;;;;;;5069616;28;20291;-64
2021/12/04 14:38:53;;;;;;;14.70;8.00;;;2.50;99.90;;;;;;5068856;28;21695;-63
2021/12/04 14:41:21;;;;;;;15.67;7.80;;;2.50;99.90;;;;;;5064528;28;20289;-63
2021/12/04 14:43:50;;;;;;;14.33;8.20;;;2.50;99.90;;;;;;5065576;28;20297;-64
2021/12/04 14:46:22;;;;;;;14.77;8.83;;;2.40;99.90;;;;;;5066343;28;20240;-66
2021/12/04 14:48:52;;;;;;;18.23;9.33;;;2.40;99.90;;;;;;5066773;28;20296;-65
2021/12/04 14:51:23;;;;;;;13.17;8.43;;;2.40;99.90;;;;;;5079618;28;20212;-63
2021/12/04 14:53:53;;;;;;;16.30;8.83;;;2.50;99.90;;;;;;5075618;28;20200;-65
2021/12/04 14:56:21;;;;;;;14.40;8.87;;;2.40;99.90;;;;;;5084345;28;20216;-64
2021/12/04 14:58:50;;;;;;;16.55;10.43;;;2.40;99.90;;;;;;5081424;28;20551;-65
2021/12/04 15:01:22;;;;;;;16.50;10.95;;;2.40;99.90;;;;;;5062452;28;20501;-67
2021/12/04 15:03:51;;;;;;;18.75;10.55;;;2.40;99.90;;;;;;5071146;28;20515;-66
2021/12/04 15:06:20;;;;;;;15.53;9.53;;;2.40;99.90;;;;;;5077709;28;20217;-66
2021/12/04 15:08:49;;;;;;;15.67;8.93;;;2.40;99.90;;;;;;5065660;28;20645;-66
2021/12/04 15:11:19;;;;;;;18.60;11.23;;;2.30;99.90;;;;;;5071284;28;20913;-64
2021/12/04 15:13:53;;;;;;;17.13;12.00;;;2.30;99.90;;;;;;5070196;28;20477;-65
2021/12/04 15:16:30;;;;;;;17.90;9.40;;;2.30;99.90;;;;;;5065173;28;20287;-67
2021/12/04 15:19:12;;;;;;;13.93;8.63;;;2.20;99.90;;;;;;5069309;28;20209;-66
2021/12/04 15:21:45;;;;;;;16.60;9.07;;;2.20;99.90;;;;;;5061932;28;20190;-63
2021/12/04 15:24:19;;;;;;;15.40;8.80;;;2.20;99.90;;;;;;5061732;28;20206;-66